createdAt,value
2019-02-24T00:03:11.999Z,55.42
2019-02-24T00:07:15.414Z,55.68
2019-02-24T00:11:21.953Z,56.13
2019-02-24T00:15:25.328Z,57.01
2019-02-24T00:19:28.709Z,57.32
2019-02-24T00:23:32.122Z,57.68
2019-02-24T00:27:35.560Z,57.87
2019-02-24T00:31:38.886Z,57.87
2019-02-24T00:35:42.242Z,57.59
2019-02-24T00:39:45.551Z,57.92
2019-02-24T00:43:48.958Z,57.88
2019-02-24T00:47:52.367Z,57.98
2019-02-24T00:51:55.773Z,57.48
2019-02-24T00:55:59.180Z,56.35
2019-02-24T01:00:02.591Z,56.58
2019-02-24T01:04:05.998Z,57.20
2019-02-24T01:08:09.418Z,57.41
2019-02-24T01:12:13.123Z,58.06
2019-02-24T01:16:16.534Z,57.46
2019-02-24T01:20:19.835Z,56.88
2019-02-24T01:24:23.252Z,57.05
2019-02-24T01:28:26.669Z,56.93
2019-02-24T01:32:30.067Z,57.17
2019-02-24T01:36:33.380Z,57.73
2019-02-24T01:40:36.783Z,57.27
2019-02-24T01:44:40.190Z,57.01
2019-02-24T01:48:43.702Z,57.82
2019-02-24T01:52:47.063Z,57.88
2019-02-24T01:56:50.417Z,58.08
2019-02-24T02:00:53.828Z,57.68
2019-02-24T02:04:58.531Z,57.56
2019-02-24T02:09:01.972Z,57.77
2019-02-24T02:13:05.386Z,57.69
2019-02-24T02:17:08.790Z,58.06
2019-02-24T02:21:12.200Z,58.06
2019-02-24T02:25:15.586Z,58.10
2019-02-24T02:29:19.018Z,58.30
2019-02-24T02:33:22.430Z,58.48
2019-02-24T02:37:25.834Z,59.39
2019-02-24T02:41:29.245Z,59.59
2019-02-24T02:45:33.677Z,59.53
2019-02-24T02:49:37.090Z,59.54
2019-02-24T02:53:40.490Z,59.52
2019-02-24T02:57:43.800Z,59.46
2019-02-24T03:01:47.117Z,59.24
2019-02-24T03:05:58.092Z,59.84
2019-02-24T03:10:02.875Z,60.06
2019-02-24T03:14:06.342Z,60.21
2019-02-24T03:18:09.661Z,60.08
2019-02-24T03:22:13.071Z,59.46
2019-02-24T03:26:16.374Z,59.46
2019-02-24T03:30:19.773Z,59.47
2019-02-24T03:34:23.079Z,59.50
2019-02-24T03:38:26.491Z,59.77
2019-02-24T03:42:30.143Z,59.47
2019-02-24T03:46:33.525Z,58.22
2019-02-24T03:50:37.021Z,58.68
2019-02-24T03:54:40.429Z,59.36
2019-02-24T03:58:43.838Z,59.45
2019-02-24T04:02:47.146Z,59.95
2019-02-24T04:06:50.460Z,59.73
2019-02-24T04:10:53.865Z,59.60
2019-02-24T04:14:57.267Z,59.12
2019-02-24T04:19:00.675Z,59.47
2019-02-24T04:23:04.160Z,59.53
2019-02-24T04:27:07.495Z,59.74
2019-02-24T04:31:10.909Z,59.62
2019-02-24T04:35:14.197Z,59.11
2019-02-24T04:39:17.617Z,59.39
2019-02-24T04:43:21.037Z,60.18
2019-02-24T04:47:24.354Z,60.22
2019-02-24T04:51:27.741Z,60.22
2019-02-24T04:55:31.151Z,60.18
2019-02-24T04:59:35.345Z,59.98
2019-02-24T05:03:38.772Z,60.12
2019-02-24T05:07:42.096Z,59.96
2019-02-24T05:11:45.712Z,59.63
2019-02-24T05:15:49.115Z,59.70
2019-02-24T05:19:52.514Z,59.78
2019-02-24T05:23:55.939Z,59.59
2019-02-24T05:27:59.236Z,60.24
2019-02-24T05:32:02.648Z,60.85
2019-02-24T05:36:05.955Z,60.36
2019-02-24T05:40:09.364Z,59.88
2019-02-24T05:44:12.997Z,59.72
2019-02-24T05:48:16.350Z,60.34
2019-02-24T05:52:19.693Z,60.38
2019-02-24T05:56:23.110Z,60.43
2019-02-24T06:00:26.525Z,60.29
2019-02-24T06:04:29.921Z,60.46
2019-02-24T06:08:33.324Z,60.19
2019-02-24T06:12:36.739Z,60.22
2019-02-24T06:16:40.123Z,59.85
2019-02-24T06:20:43.447Z,60.05
2019-02-24T06:24:46.860Z,59.90
2019-02-24T06:28:50.367Z,59.90
2019-02-24T06:32:53.881Z,59.41
2019-02-24T06:36:57.309Z,58.86
2019-02-24T06:41:00.700Z,58.41
2019-02-24T06:45:05.119Z,57.79
2019-02-24T06:49:08.541Z,56.89
2019-02-24T06:53:12.950Z,55.29
2019-02-24T06:57:16.981Z,49.51
2019-02-24T07:01:20.404Z,44.67
2019-02-24T07:05:23.824Z,40.95
2019-02-24T07:09:27.241Z,39.53
2019-02-24T07:13:30.649Z,41.36
2019-02-24T07:17:34.051Z,41.01
2019-02-24T07:21:37.445Z,42.94
2019-02-24T07:25:40.875Z,43.33
2019-02-24T07:29:44.216Z,41.72
2019-02-24T07:33:47.778Z,42.64
2019-02-24T07:37:51.104Z,44.26
2019-02-24T07:41:54.488Z,44.60
2019-02-24T07:45:57.787Z,45.45
2019-02-24T07:50:01.222Z,45.16
2019-02-24T07:54:04.520Z,44.15
2019-02-24T07:58:07.918Z,40.75
2019-02-24T08:02:11.225Z,42.56
2019-02-24T08:06:14.520Z,41.79
2019-02-24T08:10:17.941Z,40.14
2019-02-24T08:14:21.262Z,40.33
2019-02-24T08:18:24.660Z,40.42
2019-02-24T08:22:28.006Z,39.10
2019-02-24T08:26:31.335Z,38.96
2019-02-24T08:30:41.627Z,40.70
2019-02-24T08:34:40.954Z,42.52
2019-02-24T08:38:44.362Z,42.99
2019-02-24T08:42:47.772Z,40.58
2019-02-24T08:46:51.192Z,40.46
2019-02-24T08:50:54.588Z,42.33
2019-02-24T08:54:57.997Z,42.38
2019-02-24T08:59:01.405Z,40.76
2019-02-24T09:03:04.814Z,40.52
2019-02-24T09:07:08.635Z,38.79
2019-02-24T09:11:12.013Z,38.36
2019-02-24T09:15:15.696Z,39.60
2019-02-24T09:19:19.259Z,35.71
2019-02-24T09:23:22.643Z,32.38
2019-02-24T09:27:25.983Z,29.18
2019-02-24T09:31:29.612Z,28.62
2019-02-24T09:35:33.005Z,28.58
2019-02-24T09:39:36.414Z,28.72
2019-02-24T09:43:39.821Z,29.44
2019-02-24T09:47:46.720Z,33.41
2019-02-24T09:51:48.589Z,32.62
2019-02-24T09:55:51.995Z,32.99
2019-02-24T09:59:55.406Z,32.60
2019-02-24T10:03:58.793Z,28.81
2019-02-24T10:08:02.226Z,26.38
2019-02-24T10:12:05.594Z,25.89
2019-02-24T10:16:09.039Z,23.49
2019-02-24T10:20:12.949Z,23.46
2019-02-24T10:24:16.369Z,23.62
2019-02-24T10:28:19.781Z,22.27
2019-02-24T10:32:23.203Z,22.10
2019-02-24T10:36:26.598Z,23.59
2019-02-24T10:40:30.004Z,23.50
2019-02-24T10:44:33.416Z,21.87
2019-02-24T10:48:36.752Z,21.14
2019-02-24T10:52:40.244Z,22.91
2019-02-24T10:56:43.765Z,23.49
2019-02-24T11:00:47.154Z,23.47
2019-02-24T11:04:50.588Z,23.97
2019-02-24T11:08:53.894Z,24.42
2019-02-24T11:12:57.483Z,23.49
2019-02-24T11:17:00.895Z,22.42
2019-02-24T11:21:04.299Z,25.37
2019-02-24T11:25:09.617Z,26.16
2019-02-24T11:29:13.052Z,29.15
2019-02-24T11:33:16.473Z,28.31
2019-02-24T11:37:19.884Z,29.93
2019-02-24T11:41:23.291Z,30.11
2019-02-24T11:45:26.700Z,29.55
2019-02-24T11:49:30.121Z,30.91
2019-02-24T11:53:33.518Z,29.98
2019-02-24T11:57:36.847Z,30.88
2019-02-24T12:01:47.315Z,28.69
2019-02-24T12:05:45.279Z,28.56
2019-02-24T12:09:48.691Z,30.11
2019-02-24T12:13:52.205Z,29.64
2019-02-24T12:17:55.609Z,30.33
2019-02-24T12:21:58.904Z,30.33
2019-02-24T12:26:02.221Z,30.91
2019-02-24T12:30:08.909Z,28.98
2019-02-24T12:34:12.256Z,28.33
2019-02-24T12:38:15.552Z,29.62
2019-02-24T12:42:18.936Z,28.14
2019-02-24T12:46:22.342Z,28.65
2019-02-24T12:50:25.671Z,28.93
2019-02-24T12:54:29.062Z,29.96
2019-02-24T12:58:32.455Z,28.94
2019-02-24T13:02:35.762Z,28.30
2019-02-24T13:06:39.083Z,28.09
2019-02-24T13:10:42.377Z,27.48
2019-02-24T13:14:46.104Z,27.48
2019-02-24T13:18:49.498Z,28.23
2019-02-24T13:22:52.817Z,27.98
2019-02-24T13:26:56.224Z,28.42
2019-02-24T13:30:59.562Z,28.07
2019-02-24T13:35:04.597Z,29.75
2019-02-24T13:39:07.993Z,29.54
2019-02-24T13:43:11.360Z,29.62
2019-02-24T13:47:14.710Z,31.07
2019-02-24T13:51:18.116Z,30.34
2019-02-24T13:55:21.443Z,29.54
2019-02-24T13:59:24.828Z,28.91
2019-02-24T14:03:28.139Z,28.07
2019-02-24T14:07:31.436Z,28.47
2019-02-24T14:11:34.798Z,27.58
2019-02-24T14:15:38.216Z,28.98
2019-02-24T14:19:41.612Z,28.49
2019-02-24T14:23:44.905Z,28.87
2019-02-24T14:27:48.281Z,28.27
2019-02-24T14:31:51.589Z,28.49
2019-02-24T14:35:54.926Z,29.48
2019-02-24T14:39:58.243Z,30.06
2019-02-24T14:44:01.556Z,29.77
2019-02-24T14:48:05.743Z,29.63
2019-02-24T14:52:09.074Z,29.05
2019-02-24T14:56:12.561Z,30.75
2019-02-24T15:00:21.737Z,32.83
2019-02-24T15:04:25.028Z,34.42
2019-02-24T15:08:28.414Z,33.05
2019-02-24T15:12:31.727Z,34.35
2019-02-24T15:16:35.046Z,35.23
2019-02-24T15:20:38.371Z,34.77
2019-02-24T15:24:41.678Z,32.31
2019-02-24T15:28:44.967Z,32.81
2019-02-24T15:32:51.522Z,33.43
2019-02-24T15:36:53.507Z,32.24
2019-02-24T15:40:56.915Z,34.04
2019-02-24T15:45:00.249Z,33.65
2019-02-24T15:49:03.634Z,33.30
2019-02-24T15:53:07.040Z,34.84
2019-02-24T15:57:11.580Z,37.10
2019-02-24T16:01:14.989Z,37.99
2019-02-24T16:05:18.291Z,37.82
2019-02-24T16:09:21.700Z,38.30
2019-02-24T16:13:25.015Z,39.22
2019-02-24T16:17:28.340Z,41.27
2019-02-24T16:21:31.823Z,41.25
2019-02-24T16:25:35.168Z,42.56
2019-02-24T16:29:38.445Z,43.19
2019-02-24T16:33:41.736Z,44.13
2019-02-24T16:37:45.162Z,48.76
2019-02-24T16:41:48.474Z,51.46
2019-02-24T16:45:52.082Z,52.37
2019-02-24T16:49:55.401Z,52.82
2019-02-24T16:53:58.737Z,51.25
2019-02-24T16:58:02.060Z,50.34
2019-02-24T17:02:05.375Z,51.43
2019-02-24T17:06:08.708Z,52.36
2019-02-24T17:10:19.902Z,51.43
2019-02-24T17:14:24.809Z,52.03
2019-02-24T17:18:28.188Z,51.88
2019-02-24T17:22:31.507Z,52.62
2019-02-24T17:26:34.800Z,52.81
2019-02-24T17:30:38.090Z,53.38
2019-02-24T17:34:41.481Z,54.08
2019-02-24T17:38:44.891Z,55.11
2019-02-24T17:42:48.221Z,54.63
2019-02-24T17:46:51.486Z,54.70
2019-02-24T17:50:55.126Z,54.62
2019-02-24T17:54:58.423Z,55.17
2019-02-24T17:59:01.838Z,56.46
2019-02-24T18:03:05.171Z,56.38
2019-02-24T18:07:08.556Z,56.34
2019-02-24T18:11:11.891Z,56.61
2019-02-24T18:15:15.273Z,56.61
2019-02-24T18:19:18.595Z,56.52
2019-02-24T18:23:21.911Z,56.57
2019-02-24T18:27:25.284Z,56.63
2019-02-24T18:31:28.697Z,56.32
2019-02-24T18:35:32.002Z,56.55
2019-02-24T18:39:35.407Z,56.23
2019-02-24T18:43:38.742Z,56.11
2019-02-24T18:47:42.054Z,56.83
2019-02-24T18:51:45.378Z,56.83
2019-02-24T18:55:48.668Z,57.17
2019-02-24T18:59:52.044Z,57.18
2019-02-24T19:03:57.949Z,57.63
2019-02-24T19:08:00.505Z,57.69
2019-02-24T19:12:03.990Z,57.31
2019-02-24T19:16:07.391Z,56.90
2019-02-24T19:20:16.131Z,57.50
2019-02-24T19:24:19.466Z,57.81
2019-02-24T19:28:22.922Z,57.18
2019-02-24T19:32:26.326Z,56.79
2019-02-24T19:36:29.745Z,56.84
2019-02-24T19:40:33.354Z,56.16
2019-02-24T19:44:36.751Z,56.00
2019-02-24T19:48:42.167Z,56.27
2019-02-24T19:52:45.316Z,55.92
2019-02-24T19:56:48.751Z,55.94
2019-02-24T20:00:52.224Z,56.02
2019-02-24T20:04:55.607Z,56.98
2019-02-24T20:08:58.904Z,56.68
2019-02-24T20:13:02.317Z,56.78
2019-02-24T20:17:05.701Z,56.64
2019-02-24T20:21:09.031Z,57.23
2019-02-24T20:25:13.995Z,56.98
2019-02-24T20:29:17.334Z,56.95
2019-02-24T20:33:20.692Z,56.63
2019-02-24T20:37:24.000Z,56.74
2019-02-24T20:41:27.410Z,57.01
2019-02-24T20:45:30.915Z,56.63
2019-02-24T20:49:34.428Z,56.63
2019-02-24T20:53:37.797Z,56.65
2019-02-24T20:57:41.123Z,56.57
2019-02-24T21:01:44.457Z,57.15
2019-02-24T21:05:48.575Z,57.06
2019-02-24T21:09:51.881Z,57.04
2019-02-24T21:13:55.291Z,57.22
2019-02-24T21:17:58.596Z,57.18
2019-02-24T21:22:02.012Z,57.67
2019-02-24T21:26:05.418Z,57.50
2019-02-24T21:30:14.763Z,56.84
2019-02-24T21:34:18.273Z,57.43
2019-02-24T21:38:21.565Z,57.89
2019-02-24T21:42:25.006Z,58.52
2019-02-24T21:46:28.328Z,58.16
2019-02-24T21:50:31.808Z,57.88
2019-02-24T21:54:35.293Z,57.75
2019-02-24T21:58:38.585Z,57.70
2019-02-24T22:02:41.931Z,57.53
2019-02-24T22:06:45.346Z,57.73
2019-02-24T22:10:48.750Z,57.67
2019-02-24T22:14:52.159Z,57.25
2019-02-24T22:18:55.465Z,57.93
2019-02-24T22:22:58.885Z,57.96
2019-02-24T22:27:02.291Z,57.87
2019-02-24T22:31:05.693Z,58.62
2019-02-24T22:35:09.557Z,58.47
2019-02-24T22:39:12.919Z,58.38
2019-02-24T22:43:16.330Z,58.27
2019-02-24T22:47:19.736Z,57.91
2019-02-24T22:51:23.104Z,58.16
2019-02-24T22:55:26.462Z,58.13
2019-02-24T22:59:29.763Z,57.89
2019-02-24T23:03:35.394Z,57.71
2019-02-24T23:07:39.073Z,57.85
2019-02-24T23:11:42.365Z,57.88
2019-02-24T23:15:45.752Z,57.73
2019-02-24T23:19:49.065Z,58.03
2019-02-24T23:23:52.467Z,57.95
2019-02-24T23:27:55.871Z,57.71
2019-02-24T23:31:59.171Z,58.00
2019-02-24T23:36:02.591Z,58.35
2019-02-24T23:40:07.975Z,58.43
2019-02-24T23:44:11.555Z,58.11
2019-02-24T23:48:14.963Z,57.67
2019-02-24T23:52:19.296Z,57.67
2019-02-24T23:56:22.585Z,57.67
